Time;durP1;ratioP1;P1;durP2;ratioP2;P2;SDS_P1;SDS_P2;PMS_P1;PMS_P2;Temp;Humidity;BMP_temperature;BMP_pressure;BME280_temperature;BME280_humidity;BME280_pressure;Samples;Min_cycle;Max_cycle;Signal;HPM_P1;HPM_P2
2022/04/30 00:00:50;;;;;;;;;;;;;;;8.30;69.33;98999.77;1665675;85;85426;-86
2022/04/30 00:03:17;;;;;;;;;;;;;;;8.26;69.46;98989.09;1670374;85;21720;-86
2022/04/30 00:05:43;;;;;;;;;;;;;;;8.22;69.61;98987.56;1647218;85;25532;-85
2022/04/30 00:08:09;;;;;;;;;;;;;;;8.02;69.61;98985.14;1632058;86;24472;-84
2022/04/30 00:10:38;;;;;;;;;;;;;;;7.80;69.62;98987.50;1638561;86;20196;-85
2022/04/30 00:13:05;;;;;;;;;;;;;;;7.67;69.74;98994.25;1642894;85;24906;-85
2022/04/30 00:15:34;;;;;;;;;;;;;;;7.69;70.09;98988.97;1647612;86;21444;-85
2022/04/30 00:18:01;;;;;;;;;;;;;;;7.78;70.54;98985.91;1643098;86;26713;-85
2022/04/30 00:20:36;;;;;;;;;;;;;;;7.87;70.93;98984.13;1638526;86;24494;-86
2022/04/30 00:23:01;;;;;;;;;;;;;;;7.80;71.16;98978.87;1630956;86;20226;-84
2022/04/30 00:25:27;;;;;;;;;;;;;;;7.63;71.19;98984.06;1655887;84;20348;-84
2022/04/30 00:27:53;;;;;;;;;;;;;;;7.47;71.29;98978.77;1635956;86;20326;-84
2022/04/30 00:30:19;;;;;;;;;;;;;;;7.35;71.51;98982.80;1661188;85;21027;-84
2022/04/30 00:32:48;;;;;;;;;;;;;;;7.38;71.85;98985.70;1629844;86;20335;-84
2022/04/30 00:35:14;;;;;;;;;;;;;;;7.44;72.27;98984.10;1668989;85;20349;-85
2022/04/30 00:37:46;;;;;;;;;;;;;;;7.46;72.62;98987.48;1666792;85;24737;-84
2022/04/30 00:40:10;;;;;;;;;;;;;;;7.32;72.76;98987.28;1666522;85;22091;-84
2022/04/30 00:42:37;;;;;;;;;;;;;;;7.15;72.91;98982.42;1670337;85;25961;-84
2022/04/30 00:45:03;;;;;;;;;;;;;;;7.02;73.11;98984.39;1658738;85;24558;-84
2022/04/30 00:47:29;;;;;;;;;;;;;;;7.01;73.44;98989.20;1659563;85;20549;-84
2022/04/30 00:49:55;;;;;;;;;;;;;;;6.95;73.77;98982.98;1646908;86;24792;-85
2022/04/30 00:52:25;;;;;;;;;;;;;;;6.94;74.13;98982.59;1633966;86;20859;-85
2022/04/30 00:54:49;;;;;;;;;;;;;;;7.06;74.65;98972.91;1639835;86;26199;-84
2022/04/30 00:57:22;;;;;;;;;;;;;;;7.15;75.12;98977.22;1651578;85;24524;-84
2022/04/30 00:59:50;;;;;;;;;;;;;;;7.24;75.46;98977.26;1668904;85;20260;-84
2022/04/30 01:02:16;;;;;;;;;;;;;;;7.29;75.74;98973.13;1668566;84;24748;-84
2022/04/30 01:04:42;;;;;;;;;;;;;;;7.24;75.89;98975.11;1670848;85;21870;-85
2022/04/30 01:07:09;;;;;;;;;;;;;;;7.17;75.99;98974.55;1667097;85;21222;-84
2022/04/30 01:09:39;;;;;;;;;;;;;;;7.13;76.18;98975.62;1632463;87;25344;-84
2022/04/30 01:12:15;;;;;;;;;;;;;;;7.19;76.46;98979.23;1615287;88;20358;-85
2022/04/30 01:14:41;;;;;;;;;;;;;;;7.26;76.73;98974.11;1620666;88;25019;-84
2022/04/30 01:17:09;;;;;;;;;;;;;;;7.20;76.90;98973.09;1626524;88;21997;-85
2022/04/30 01:19:39;;;;;;;;;;;;;;;7.02;76.85;98976.58;1599946;88;26243;-85
2022/04/30 01:22:10;;;;;;;;;;;;;;;6.87;76.89;98972.95;1633784;87;25391;-85
2022/04/30 01:24:36;;;;;;;;;;;;;;;6.85;77.17;98965.66;1620213;88;20250;-85
2022/04/30 01:27:04;;;;;;;;;;;;;;;7.01;77.62;98969.69;1624688;88;24841;-86
2022/04/30 01:29:31;;;;;;;;;;;;;;;7.11;78.02;98967.88;1669574;85;22091;-85
2022/04/30 01:37:28;;;;;;;;;;;;;;;7.18;78.53;98968.44;1663371;85;20218;-86
2022/04/30 01:40:03;;;;;;;;;;;;;;;7.12;78.61;98966.97;1665596;85;24375;-86
2022/04/30 01:42:35;;;;;;;;;;;;;;;7.12;78.80;98969.57;1665801;85;22603;-85
2022/04/30 01:45:04;;;;;;;;;;;;;;;7.10;78.94;98963.58;1634312;86;25995;-84
2022/04/30 01:47:31;;;;;;;;;;;;;;;7.02;79.10;98960.52;1620601;87;24446;-84
2022/04/30 01:49:57;;;;;;;;;;;;;;;7.06;79.35;98962.05;1624766;86;20283;-84
2022/04/30 01:52:23;;;;;;;;;;;;;;;7.15;79.66;98956.39;1632616;87;24789;-84
2022/04/30 01:54:49;;;;;;;;;;;;;;;7.22;79.85;98954.35;1616255;88;20875;-84
2022/04/30 01:57:23;;;;;;;;;;;;;;;7.21;79.93;98949.21;1668320;85;25947;-81
2022/04/30 01:59:46;;;;;;;;;;;;;;;7.12;79.92;98949.20;1635805;86;24420;-84
2022/04/30 02:02:12;;;;;;;;;;;;;;;7.03;79.93;98947.89;1615496;88;20498;-84
2022/04/30 02:04:39;;;;;;;;;;;;;;;6.98;79.99;98949.02;1665385;84;24943;-85
2022/04/30 02:07:10;;;;;;;;;;;;;;;6.96;80.12;98943.89;1660045;86;22025;-84
2022/04/30 02:09:37;;;;;;;;;;;;;;;7.01;80.37;98945.81;1657648;85;26073;-83
2022/04/30 02:12:04;;;;;;;;;;;;;;;6.98;80.52;98944.64;1658317;84;24695;-83
2022/04/30 02:14:30;;;;;;;;;;;;;;;6.85;80.48;98940.09;1656268;86;20155;-83
2022/04/30 02:17:03;;;;;;;;;;;;;;;6.72;80.45;98938.52;1661468;86;24913;-86
2022/04/30 02:20:18;;;;;;;;;;;;;;;6.60;80.46;98933.41;1670296;85;21994;-83
2022/04/30 02:21:58;;;;;;;;;;;;;;;6.56;80.65;98929.27;1631623;87;26881;-83
2022/04/30 02:24:26;;;;;;;;;;;;;;;6.63;80.95;98929.39;1637989;87;24632;-84
2022/04/30 02:26:52;;;;;;;;;;;;;;;6.66;81.13;98928.39;1664013;86;20496;-85
2022/04/30 02:29:18;;;;;;;;;;;;;;;6.68;81.36;98930.47;1662176;85;24728;-84
2022/04/30 02:31:45;;;;;;;;;;;;;;;6.68;81.59;98931.32;1665882;84;21921;-83
2022/04/30 02:34:11;;;;;;;;;;;;;;;6.48;81.57;98930.09;1661998;85;27479;-84
2022/04/30 02:36:37;;;;;;;;;;;;;;;6.29;81.55;98928.77;1667293;85;24543;-84
2022/04/30 02:39:03;;;;;;;;;;;;;;;6.12;81.59;98918.27;1664820;85;20292;-85
2022/04/30 02:41:29;;;;;;;;;;;;;;;5.98;81.68;98924.54;1646513;85;24748;-84
2022/04/30 02:43:56;;;;;;;;;;;;;;;5.84;81.83;98916.45;1665988;85;20291;-86
2022/04/30 02:46:25;;;;;;;;;;;;;;;5.79;82.08;98922.30;1665232;86;26087;-85
2022/04/30 02:48:51;;;;;;;;;;;;;;;5.95;82.65;98917.31;1665074;85;24519;-85
2022/04/30 02:51:17;;;;;;;;;;;;;;;6.06;83.18;98916.39;1665181;85;20297;-85
2022/04/30 02:53:44;;;;;;;;;;;;;;;5.96;83.42;98913.81;1665019;85;24873;-85
2022/04/30 02:56:10;;;;;;;;;;;;;;;5.85;83.58;98910.35;1666400;86;22121;-85
2022/04/30 03:01:21;;;;;;;;;;;;;;;5.94;84.28;98905.27;1663622;86;24515;-85
2022/04/30 03:03:47;;;;;;;;;;;;;;;6.03;84.74;98899.66;1661876;86;20527;-85
2022/04/30 03:06:14;;;;;;;;;;;;;;;6.16;85.21;98902.95;1664414;83;24729;-85
2022/04/30 03:08:40;;;;;;;;;;;;;;;6.30;85.54;98906.22;1638597;86;22098;-85
2022/04/30 03:11:12;;;;;;;;;;;;;;;6.18;85.59;98906.31;1664086;85;26112;-84
2022/04/30 03:13:38;;;;;;;;;;;;;;;5.95;85.43;98896.08;1666028;85;24627;-85
2022/04/30 03:21:42;;;;;;;;;;;;;;;5.52;85.57;98891.86;1638612;86;22036;-84
2022/04/30 03:24:08;;;;;;;;;;;;;;;5.45;85.81;98895.64;1637839;87;26058;-84
2022/04/30 03:26:34;;;;;;;;;;;;;;;5.53;86.24;98896.59;1658285;85;24422;-85
2022/04/30 03:29:00;;;;;;;;;;;;;;;5.67;86.72;98900.32;1658512;85;20492;-84
2022/04/30 03:31:28;;;;;;;;;;;;;;;5.79;87.19;98896.33;1661997;85;24962;-85
2022/04/30 03:33:54;;;;;;;;;;;;;;;5.92;87.57;98897.53;1660057;85;22043;-85
2022/04/30 03:36:20;;;;;;;;;;;;;;;5.94;87.81;98898.31;1664549;85;26052;-84
2022/04/30 03:38:47;;;;;;;;;;;;;;;5.83;87.88;98897.45;1660035;85;20849;-85
2022/04/30 03:41:13;;;;;;;;;;;;;;;5.81;88.06;98892.77;1662617;85;20456;-84
2022/04/30 03:43:39;;;;;;;;;;;;;;;5.94;88.38;98894.42;1662155;85;24754;-84
2022/04/30 03:46:08;;;;;;;;;;;;;;;5.94;88.59;98889.67;1664420;85;21804;-84
2022/04/30 03:48:34;;;;;;;;;;;;;;;5.85;88.62;98885.67;1666651;85;26177;-84
2022/04/30 03:51:00;;;;;;;;;;;;;;;5.93;88.89;98884.09;1665643;85;20267;-85
2022/04/30 03:53:26;;;;;;;;;;;;;;;5.99;89.16;98885.97;1666386;85;20253;-84
2022/04/30 03:56:02;;;;;;;;;;;;;;;6.07;89.41;98886.91;1634948;87;24779;-84
2022/04/30 03:58:34;;;;;;;;;;;;;;;6.19;89.71;98890.27;1664564;84;21993;-85
2022/04/30 04:01:00;;;;;;;;;;;;;;;6.24;89.96;98891.75;1659806;85;26018;-84
2022/04/30 04:03:26;;;;;;;;;;;;;;;6.32;90.20;98887.52;1659918;85;24521;-83
2022/04/30 04:05:52;;;;;;;;;;;;;;;6.38;90.42;98888.53;1656605;85;20250;-84
2022/04/30 04:08:20;;;;;;;;;;;;;;;6.47;90.70;98885.50;1662553;85;20231;-85
2022/04/30 04:10:58;;;;;;;;;;;;;;;6.60;91.04;98887.09;1671499;85;22061;-85
2022/04/30 04:18:55;;;;;;;;;;;;;;;6.75;91.54;98895.47;1664124;85;20254;-84
2022/04/30 04:21:24;;;;;;;;;;;;;;;6.80;91.66;98897.40;1666409;85;24854;-85
2022/04/30 04:26:36;;;;;;;;;;;;;;;6.78;91.79;98890.56;1663887;85;25991;-85
2022/04/30 04:29:02;;;;;;;;;;;;;;;6.64;91.76;98889.47;1662202;85;24411;-85
2022/04/30 04:31:32;;;;;;;;;;;;;;;6.62;91.88;98893.05;1664915;85;20262;-85
2022/04/30 04:33:59;;;;;;;;;;;;;;;6.68;92.16;98894.91;1664574;85;24735;-85
2022/04/30 04:36:25;;;;;;;;;;;;;;;6.71;92.42;98901.70;1661642;85;22172;-85
2022/04/30 04:38:51;;;;;;;;;;;;;;;6.72;92.60;98902.95;1663590;85;26078;-85
2022/04/30 04:41:17;;;;;;;;;;;;;;;6.65;92.74;98892.92;1667117;85;20359;-85
2022/04/30 04:43:42;;;;;;;;;;;;;;;6.58;92.84;98891.05;1666386;85;20918;-86
2022/04/30 04:46:09;;;;;;;;;;;;;;;6.51;92.91;98892.70;1656833;86;20275;-85
2022/04/30 04:48:36;;;;;;;;;;;;;;;6.48;93.11;98885.05;1634943;86;21990;-85
2022/04/30 04:51:02;;;;;;;;;;;;;;;6.48;93.38;98887.66;1665049;86;25491;-85
2022/04/30 04:53:29;;;;;;;;;;;;;;;6.54;93.75;98886.07;1664702;86;24410;-83
2022/04/30 04:55:55;;;;;;;;;;;;;;;6.60;94.11;98887.09;1661204;86;20571;-83
2022/04/30 04:58:21;;;;;;;;;;;;;;;6.66;94.50;98887.63;1660925;86;24888;-83
2022/04/30 05:00:48;;;;;;;;;;;;;;;6.71;94.87;98888.25;1664315;85;20832;-83
2022/04/30 05:03:14;;;;;;;;;;;;;;;6.78;95.22;98886.21;1664749;84;26013;-83
2022/04/30 05:05:40;;;;;;;;;;;;;;;6.84;95.58;98892.42;1663185;84;24418;-83
2022/04/30 05:08:06;;;;;;;;;;;;;;;6.88;95.89;98888.75;1662461;86;20285;-84
2022/04/30 05:10:35;;;;;;;;;;;;;;;6.95;96.21;98891.91;1660593;86;20328;-85
2022/04/30 05:13:01;;;;;;;;;;;;;;;7.22;96.82;98888.43;1660709;86;22032;-85
2022/04/30 05:15:27;;;;;;;;;;;;;;;7.46;97.45;98882.88;1658516;85;26158;-85
2022/04/30 05:17:53;;;;;;;;;;;;;;;7.74;98.05;98884.92;1635944;86;24475;-84
2022/04/30 05:20:19;;;;;;;;;;;;;;;7.95;98.52;98888.18;1658552;86;20167;-84
2022/04/30 05:22:46;;;;;;;;;;;;;;;8.05;98.79;98887.23;1661763;86;24790;-84
2022/04/30 05:25:13;;;;;;;;;;;;;;;8.02;98.81;98888.70;1659655;85;21929;-84
2022/04/30 05:27:39;;;;;;;;;;;;;;;7.95;98.71;98886.42;1656259;85;27309;-84
2022/04/30 05:30:22;;;;;;;;;;;;;;;7.90;98.56;98886.28;1658208;86;20260;-84
2022/04/30 05:32:45;;;;;;;;;;;;;;;7.92;98.61;98886.56;1658333;86;20231;-84
2022/04/30 05:35:17;;;;;;;;;;;;;;;7.94;98.65;98890.40;1660457;85;24791;-84
2022/04/30 05:37:43;;;;;;;;;;;;;;;7.93;98.56;98889.55;1660383;86;22248;-84
2022/04/30 05:40:10;;;;;;;;;;;;;;;7.98;98.64;98884.94;1662691;86;26078;-84
2022/04/30 05:42:36;;;;;;;;;;;;;;;8.11;98.86;98894.73;1662421;86;24485;-84
2022/04/30 05:45:02;;;;;;;;;;;;;;;8.15;98.91;98890.58;1657509;86;20863;-84
2022/04/30 05:47:28;;;;;;;;;;;;;;;8.18;98.89;98893.01;1658236;86;24740;-84
2022/04/30 05:49:54;;;;;;;;;;;;;;;8.26;99.02;98900.44;1661221;84;21978;-84
2022/04/30 05:52:20;;;;;;;;;;;;;;;8.30;99.13;98900.22;1660887;86;21103;-84
2022/04/30 05:54:46;;;;;;;;;;;;;;;8.38;99.21;98903.73;1658354;86;24501;-84
2022/04/30 05:57:12;;;;;;;;;;;;;;;8.42;99.23;98899.19;1661668;84;20247;-86
2022/04/30 05:59:39;;;;;;;;;;;;;;;8.45;99.24;98899.88;1661457;86;20276;-86
2022/04/30 06:02:05;;;;;;;;;;;;;;;8.48;99.23;98894.95;1659116;84;21959;-86
2022/04/30 06:04:31;;;;;;;;;;;;;;;8.54;99.37;98899.38;1659236;86;21031;-86
2022/04/30 06:07:03;;;;;;;;;;;;;;;8.60;99.33;98904.27;1668830;85;24501;-86
2022/04/30 06:09:29;;;;;;;;;;;;;;;8.71;99.43;98907.13;1668021;85;20258;-86
2022/04/30 06:11:55;;;;;;;;;;;;;;;8.83;99.65;98905.63;1654192;85;24728;-85
2022/04/30 06:14:22;;;;;;;;;;;;;;;8.89;99.73;98909.66;1660191;85;21940;-85
2022/04/30 06:16:48;;;;;;;;;;;;;;;8.95;99.78;98902.77;1652137;86;26995;-85
2022/04/30 06:19:14;;;;;;;;;;;;;;;9.01;99.76;98911.11;1668429;84;24390;-84
2022/04/30 06:21:40;;;;;;;;;;;;;;;9.09;99.81;98902.39;1663158;85;20495;-84
2022/04/30 06:24:06;;;;;;;;;;;;;;;9.13;99.85;98903.05;1667916;84;24769;-84
2022/04/30 06:26:33;;;;;;;;;;;;;;;9.23;99.95;98902.91;1663639;85;21789;-84
2022/04/30 06:28:58;;;;;;;;;;;;;;;9.24;99.89;98905.90;1664693;85;26040;-85
2022/04/30 06:31:24;;;;;;;;;;;;;;;9.17;99.72;98899.33;1667722;85;24508;-85
2022/04/30 06:33:52;;;;;;;;;;;;;;;9.18;99.69;98904.48;1673127;85;20367;-85
2022/04/30 06:36:18;;;;;;;;;;;;;;;9.22;99.66;98897.30;1646002;86;24771;-84
2022/04/30 06:38:44;;;;;;;;;;;;;;;9.26;99.63;98896.69;1667756;85;20834;-84
2022/04/30 06:41:10;;;;;;;;;;;;;;;9.34;99.67;98899.68;1667890;84;20987;-84
2022/04/30 06:43:36;;;;;;;;;;;;;;;9.40;99.71;98898.87;1669512;85;20327;-84
2022/04/30 06:46:02;;;;;;;;;;;;;;;9.52;99.89;98899.94;1673548;85;20213;-84
2022/04/30 06:48:29;;;;;;;;;;;;;;;9.60;99.97;98899.85;1671301;85;24705;-84
2022/04/30 06:50:55;;;;;;;;;;;;;;;9.76;100.00;98897.67;1670385;85;22081;-83
2022/04/30 06:58:59;;;;;;;;;;;;;;;9.67;99.75;98889.89;1656731;85;20929;-83
2022/04/30 07:03:55;;;;;;;;;;;;;;;9.61;99.33;98896.78;1663495;86;22092;-83
2022/04/30 07:06:23;;;;;;;;;;;;;;;9.64;99.30;98897.92;1657408;86;26025;-84
2022/04/30 07:08:49;;;;;;;;;;;;;;;9.75;99.48;98892.91;1647772;86;24541;-83
2022/04/30 07:11:17;;;;;;;;;;;;;;;9.86;99.64;98895.72;1633922;87;20259;-83
2022/04/30 07:13:44;;;;;;;;;;;;;;;9.90;99.78;98895.06;1646327;86;25571;-83
2022/04/30 07:16:10;;;;;;;;;;;;;;;9.99;100.00;98897.96;1646545;86;21959;-83
2022/04/30 07:18:36;;;;;;;;;;;;;;;9.99;100.00;98901.88;1645497;86;26097;-83
2022/04/30 07:21:02;;;;;;;;;;;;;;;9.99;99.99;98898.42;1646018;86;20279;-83
2022/04/30 07:23:28;;;;;;;;;;;;;;;10.08;100.00;98899.20;1625932;86;20207;-83
2022/04/30 07:25:54;;;;;;;;;;;;;;;10.07;100.00;98897.05;1662897;86;20727;-84
2022/04/30 07:28:20;;;;;;;;;;;;;;;10.09;100.00;98900.89;1657021;85;20939;-83
2022/04/30 07:30:46;;;;;;;;;;;;;;;10.08;100.00;98896.13;1648877;86;21034;-83
2022/04/30 07:33:14;;;;;;;;;;;;;;;10.11;100.00;98896.84;1650968;86;24484;-83
2022/04/30 07:35:40;;;;;;;;;;;;;;;10.14;100.00;98900.61;1646527;86;20290;-83
2022/04/30 07:38:06;;;;;;;;;;;;;;;10.18;100.00;98900.35;1651075;85;24754;-84
2022/04/30 07:40:34;;;;;;;;;;;;;;;10.16;100.00;98897.41;1651402;86;20265;-85
2022/04/30 07:43:00;;;;;;;;;;;;;;;10.20;100.00;98895.04;1651339;86;26843;-85
2022/04/30 07:45:26;;;;;;;;;;;;;;;10.27;100.00;98895.02;1661849;85;24397;-85
2022/04/30 07:47:54;;;;;;;;;;;;;;;10.38;100.00;98893.89;1658050;86;20623;-85
2022/04/30 07:50:21;;;;;;;;;;;;;;;10.46;100.00;98888.58;1647248;86;24754;-85
2022/04/30 07:52:48;;;;;;;;;;;;;;;10.62;100.00;98895.00;1650939;86;22078;-85
2022/04/30 07:55:14;;;;;;;;;;;;;;;10.75;100.00;98896.35;1647592;86;26041;-85
2022/04/30 07:57:40;;;;;;;;;;;;;;;10.86;100.00;98890.81;1631828;87;24358;-85
2022/04/30 08:00:06;;;;;;;;;;;;;;;11.07;100.00;98891.24;1645068;86;20968;-85
2022/04/30 08:02:32;;;;;;;;;;;;;;;11.24;100.00;98883.57;1651469;86;25014;-85
2022/04/30 08:05:01;;;;;;;;;;;;;;;11.40;100.00;98884.24;1647248;86;22060;-85
2022/04/30 08:07:35;;;;;;;;;;;;;;;11.60;100.00;98879.84;1644771;86;26642;-85
2022/04/30 08:10:05;;;;;;;;;;;;;;;11.77;100.00;98877.44;1636605;87;24575;-85
2022/04/30 08:12:40;;;;;;;;;;;;;;;11.89;100.00;98877.09;1652875;86;20338;-85
2022/04/30 08:15:06;;;;;;;;;;;;;;;12.03;100.00;98871.72;1651477;87;24811;-86
2022/04/30 08:17:39;;;;;;;;;;;;;;;12.15;100.00;98876.12;1640471;86;22139;-85
2022/04/30 08:20:06;;;;;;;;;;;;;;;12.27;99.96;98875.29;1639971;87;25952;-86
2022/04/30 08:22:32;;;;;;;;;;;;;;;12.38;99.27;98871.41;1640874;87;24500;-85
2022/04/30 08:25:00;;;;;;;;;;;;;;;12.53;99.00;98867.73;1642360;87;20297;-84
2022/04/30 08:27:26;;;;;;;;;;;;;;;12.64;98.40;98869.59;1637909;86;25432;-83
2022/04/30 08:29:52;;;;;;;;;;;;;;;12.76;97.97;98866.56;1640418;86;20892;-84
2022/04/30 08:32:27;;;;;;;;;;;;;;;12.88;97.23;98874.85;1655551;86;20981;-84
2022/04/30 08:34:54;;;;;;;;;;;;;;;12.97;96.09;98867.64;1631962;86;24562;-86
2022/04/30 08:37:20;;;;;;;;;;;;;;;13.06;95.11;98861.70;1640413;87;20175;-84
2022/04/30 08:39:48;;;;;;;;;;;;;;;13.23;94.71;98863.13;1653671;86;24758;-84
2022/04/30 08:42:16;;;;;;;;;;;;;;;13.29;93.42;98859.58;1648061;87;21997;-84
2022/04/30 08:44:45;;;;;;;;;;;;;;;13.32;92.10;98859.34;1649533;87;26636;-84
2022/04/30 08:47:11;;;;;;;;;;;;;;;13.33;90.96;98865.44;1649623;85;25470;-84
2022/04/30 08:49:39;;;;;;;;;;;;;;;13.37;90.22;98855.89;1648948;86;20320;-83
2022/04/30 08:52:07;;;;;;;;;;;;;;;13.36;89.16;98854.20;1626796;87;25380;-84
2022/04/30 08:54:33;;;;;;;;;;;;;;;13.40;88.22;98853.05;1654809;86;22065;-85
2022/04/30 08:56:59;;;;;;;;;;;;;;;13.52;87.86;98853.92;1644074;87;20934;-84
2022/04/30 08:59:25;;;;;;;;;;;;;;;13.60;87.36;98853.33;1639044;86;24445;-85
2022/04/30 09:01:57;;;;;;;;;;;;;;;13.65;86.85;98856.45;1653842;86;20430;-84
2022/04/30 09:04:24;;;;;;;;;;;;;;;13.60;85.69;98855.48;1647282;86;24958;-84
2022/04/30 09:06:51;;;;;;;;;;;;;;;13.62;84.79;98856.22;1648932;85;22076;-84
2022/04/30 09:09:30;;;;;;;;;;;;;;;13.64;83.82;98851.66;1631719;86;26069;-84
2022/04/30 09:12:06;;;;;;;;;;;;;;;13.72;82.92;98852.41;1615508;88;24529;-83
2022/04/30 09:14:32;;;;;;;;;;;;;;;13.84;82.46;98851.48;1628507;86;20165;-83
2022/04/30 09:17:05;;;;;;;;;;;;;;;13.91;81.81;98846.09;1652818;86;20779;-83
2022/04/30 09:19:49;;;;;;;;;;;;;;;13.99;80.99;98841.09;1661132;86;22071;-86
2022/04/30 09:22:15;;;;;;;;;;;;;;;14.11;80.59;98840.14;1659469;86;26170;-84
2022/04/30 09:24:45;;;;;;;;;;;;;;;14.20;79.82;98839.89;1654526;85;24501;-84
2022/04/30 09:27:13;;;;;;;;;;;;;;;14.27;79.16;98833.20;1660384;86;20477;-83
2022/04/30 09:29:39;;;;;;;;;;;;;;;14.39;78.69;98834.91;1662798;84;24686;-84
2022/04/30 09:32:07;;;;;;;;;;;;;;;14.49;78.00;98825.31;1660680;85;22157;-83
2022/04/30 09:37:46;;;;;;;;;;;;;;;14.60;76.32;98820.03;1667160;86;24655;-84
2022/04/30 09:40:16;;;;;;;;;;;;;;;14.63;74.50;98817.13;1654510;86;20218;-84
2022/04/30 09:42:42;;;;;;;;;;;;;;;14.62;72.44;98819.88;1655436;86;24784;-84
2022/04/30 09:45:29;;;;;;;;;;;;;;;14.64;71.39;98818.81;1655574;86;22157;-84
2022/04/30 09:47:57;;;;;;;;;;;;;;;14.74;70.69;98809.68;1658733;86;26055;-84
2022/04/30 09:59:04;;;;;;;;;;;;;;;14.94;67.55;98798.38;1695288;81;20300;-86
2022/04/30 10:01:32;;;;;;;;;;;;;;;14.98;66.69;98801.11;1767835;80;25977;-86
2022/04/30 10:03:59;;;;;;;;;;;;;;;15.03;66.03;98798.09;1755039;80;25041;-84
2022/04/30 10:06:25;;;;;;;;;;;;;;;15.08;65.37;98803.34;1771522;80;20308;-84
2022/04/30 10:08:52;;;;;;;;;;;;;;;15.10;64.48;98795.31;1774941;80;24722;-84
2022/04/30 10:11:21;;;;;;;;;;;;;;;15.14;63.90;98786.18;1762850;80;22129;-84
2022/04/30 10:13:51;;;;;;;;;;;;;;;15.19;63.05;98785.80;1766368;80;26230;-84
2022/04/30 10:16:19;;;;;;;;;;;;;;;15.21;62.43;98786.04;1769020;79;24411;-85
2022/04/30 10:18:50;;;;;;;;;;;;;;;15.22;61.42;98783.73;1753113;79;20202;-84
2022/04/30 10:21:18;;;;;;;;;;;;;;;15.28;61.04;98788.50;1770642;80;24778;-84
2022/04/30 10:23:46;;;;;;;;;;;;;;;15.36;60.81;98790.51;1764901;80;22680;-85
2022/04/30 10:26:15;;;;;;;;;;;;;;;15.39;60.11;98785.80;1763409;80;26046;-86
2022/04/30 10:28:41;;;;;;;;;;;;;;;15.47;59.88;98787.80;1771347;80;24439;-85
2022/04/30 10:31:11;;;;;;;;;;;;;;;15.47;59.25;98783.38;1759627;80;20866;-85
2022/04/30 10:33:50;;;;;;;;;;;;;;;15.45;58.50;98781.33;1748122;80;24811;-84
2022/04/30 10:36:18;;;;;;;;;;;;;;;15.46;57.95;98775.58;1743438;80;21950;-84
2022/04/30 10:38:45;;;;;;;;;;;;;;;15.47;57.23;98779.41;1762501;80;25833;-84
2022/04/30 10:41:12;;;;;;;;;;;;;;;15.53;56.78;98780.73;1773061;80;25182;-85
2022/04/30 10:43:40;;;;;;;;;;;;;;;15.62;56.55;98782.58;1750353;80;20213;-85
2022/04/30 10:46:17;;;;;;;;;;;;;;;15.72;56.24;98778.19;1762817;80;24954;-85
2022/04/30 10:48:43;;;;;;;;;;;;;;;15.81;55.84;98774.78;1774617;80;22060;-85
2022/04/30 10:51:10;;;;;;;;;;;;;;;15.89;55.38;98770.14;1768280;80;25912;-84
2022/04/30 10:53:38;;;;;;;;;;;;;;;15.98;55.04;98772.02;1767899;80;25210;-85
2022/04/30 10:56:05;;;;;;;;;;;;;;;16.08;54.82;98768.08;1768865;80;20290;-85
2022/04/30 10:58:31;;;;;;;;;;;;;;;16.13;54.40;98769.83;1764116;79;24807;-85
2022/04/30 11:00:58;;;;;;;;;;;;;;;16.13;53.78;98773.31;1764635;80;20248;-85
2022/04/30 11:03:34;;;;;;;;;;;;;;;16.16;53.37;98770.88;1781042;80;25943;-85
2022/04/30 11:05:57;;;;;;;;;;;;;;;16.19;52.99;98768.82;1774836;80;25190;-85
2022/04/30 11:08:23;;;;;;;;;;;;;;;16.35;53.14;98767.47;1785314;80;20306;-86
2022/04/30 11:10:50;;;;;;;;;;;;;;;16.44;52.99;98760.04;1778932;79;20858;-85
2022/04/30 11:13:20;;;;;;;;;;;;;;;16.48;52.83;98753.50;1764594;80;21932;-85
2022/04/30 11:15:47;;;;;;;;;;;;;;;16.53;52.74;98753.45;1757034;80;26117;-85
2022/04/30 11:18:16;;;;;;;;;;;;;;;16.58;52.49;98753.06;1764599;80;25338;-85
2022/04/30 11:20:42;;;;;;;;;;;;;;;16.57;52.04;98746.10;1758916;80;20230;-85
2022/04/30 11:23:08;;;;;;;;;;;;;;;16.54;51.52;98749.84;1761176;80;24701;-85
2022/04/30 11:25:36;;;;;;;;;;;;;;;16.59;51.41;98745.49;1776778;80;22183;-85
2022/04/30 11:28:08;;;;;;;;;;;;;;;16.70;51.40;98736.12;1781769;80;27100;-85
2022/04/30 11:30:43;;;;;;;;;;;;;;;16.75;51.12;98742.34;1780213;80;24481;-85
2022/04/30 11:33:24;;;;;;;;;;;;;;;16.71;50.75;98743.08;1776611;80;20495;-85
2022/04/30 11:35:57;;;;;;;;;;;;;;;16.75;50.68;98739.17;1773218;80;20333;-85
2022/04/30 11:38:23;;;;;;;;;;;;;;;16.72;50.28;98736.83;1775750;79;22034;-85
2022/04/30 11:41:05;;;;;;;;;;;;;;;16.69;50.01;98735.28;1781851;79;21202;-85
2022/04/30 11:43:31;;;;;;;;;;;;;;;16.68;49.78;98731.48;1744367;80;24376;-86
2022/04/30 11:46:03;;;;;;;;;;;;;;;16.66;49.50;98728.96;1761430;80;20949;-86
2022/04/30 11:48:41;;;;;;;;;;;;;;;16.70;49.40;98726.86;1764707;80;24853;-85
2022/04/30 11:51:10;;;;;;;;;;;;;;;16.69;49.05;98722.58;1778798;80;21996;-85
2022/04/30 11:53:41;;;;;;;;;;;;;;;16.76;48.84;98719.70;1783227;80;21085;-86
2022/04/30 11:56:05;;;;;;;;;;;;;;;16.77;48.58;98713.45;1779967;80;24445;-86
2022/04/30 11:58:43;;;;;;;;;;;;;;;16.87;48.61;98713.45;1780599;80;20208;-86
2022/04/30 12:01:22;;;;;;;;;;;;;;;16.94;48.42;98710.59;1775965;79;24796;-85
2022/04/30 12:03:56;;;;;;;;;;;;;;;17.03;48.18;98712.39;1776596;79;21954;-85
2022/04/30 12:06:24;;;;;;;;;;;;;;;17.08;47.96;98699.09;1778333;80;25993;-86
2022/04/30 12:08:51;;;;;;;;;;;;;;;17.06;47.64;98705.03;1776452;80;24670;-86
2022/04/30 12:11:17;;;;;;;;;;;;;;;17.03;47.43;98707.10;1772375;79;20297;-86
2022/04/30 12:13:47;;;;;;;;;;;;;;;17.08;47.39;98704.38;1778961;80;24797;-86
2022/04/30 12:16:14;;;;;;;;;;;;;;;17.17;47.49;98701.39;1773969;80;21956;-87
2022/04/30 12:26:58;;;;;;;;;;;;;;;17.10;46.60;98691.86;1784320;80;24834;-87
2022/04/30 12:29:30;;;;;;;;;;;;;;;17.18;46.51;98694.30;1782200;80;21947;-86
2022/04/30 12:31:57;;;;;;;;;;;;;;;17.26;46.60;98686.47;1785415;80;26222;-87
2022/04/30 12:34:32;;;;;;;;;;;;;;;17.19;46.26;98686.20;1785365;79;24438;-85
2022/04/30 12:36:59;;;;;;;;;;;;;;;17.15;46.08;98684.34;1782354;79;20209;-86
2022/04/30 12:39:31;;;;;;;;;;;;;;;17.18;46.09;98675.78;1785548;79;25652;-85
2022/04/30 12:42:00;;;;;;;;;;;;;;;17.19;46.01;98674.78;1784081;79;22596;-85
2022/04/30 12:44:27;;;;;;;;;;;;;;;17.27;46.08;98678.88;1782783;79;26149;-85
2022/04/30 12:46:53;;;;;;;;;;;;;;;17.28;45.97;98668.66;1772395;80;24512;-85
2022/04/30 12:49:19;;;;;;;;;;;;;;;17.34;46.00;98679.50;1775333;80;20260;-85
2022/04/30 12:51:51;;;;;;;;;;;;;;;17.37;45.99;98673.07;1775399;80;24943;-85
2022/04/30 12:54:17;;;;;;;;;;;;;;;17.40;45.99;98668.83;1771005;79;22140;-85
2022/04/30 12:56:44;;;;;;;;;;;;;;;17.55;46.12;98675.32;1773170;79;25993;-86
2022/04/30 12:59:10;;;;;;;;;;;;;;;17.55;45.83;98660.77;1770705;80;24401;-85
2022/04/30 13:01:40;;;;;;;;;;;;;;;17.53;45.64;98660.90;1783317;80;20197;-86
2022/04/30 13:04:07;;;;;;;;;;;;;;;17.48;45.40;98660.50;1783753;79;24791;-86
2022/04/30 13:06:39;;;;;;;;;;;;;;;17.47;45.26;98656.67;1782309;80;21983;-86
2022/04/30 13:14:35;;;;;;;;;;;;;;;17.60;45.24;98647.13;1785404;79;20293;-86
2022/04/30 13:17:03;;;;;;;;;;;;;;;17.58;45.18;98648.55;1777666;79;20744;-86
2022/04/30 13:19:31;;;;;;;;;;;;;;;17.51;45.02;98645.64;1779855;79;21809;-86
2022/04/30 13:21:59;;;;;;;;;;;;;;;17.46;44.90;98643.09;1779237;80;26596;-86
2022/04/30 13:24:26;;;;;;;;;;;;;;;17.45;44.89;98643.61;1784629;80;24252;-86
2022/04/30 13:26:56;;;;;;;;;;;;;;;17.39;44.65;98642.86;1778746;80;20511;-86
2022/04/30 13:29:23;;;;;;;;;;;;;;;17.43;44.66;98644.72;1787187;80;25469;-86
2022/04/30 13:31:49;;;;;;;;;;;;;;;17.50;44.73;98637.39;1785910;79;22000;-85
2022/04/30 13:34:24;;;;;;;;;;;;;;;17.55;44.71;98631.17;1786318;80;26081;-85
2022/04/30 13:36:52;;;;;;;;;;;;;;;17.58;44.64;98638.80;1784097;80;24597;-85
2022/04/30 13:39:18;;;;;;;;;;;;;;;17.63;44.51;98636.23;1788530;79;20216;-85
2022/04/30 13:41:44;;;;;;;;;;;;;;;17.67;44.43;98632.33;1790133;80;24804;-85
2022/04/30 13:44:15;;;;;;;;;;;;;;;17.81;44.52;98624.72;1789581;80;20944;-86
2022/04/30 13:46:38;;;;;;;;;;;;;;;18.08;44.63;98624.34;1690857;83;26348;-85
2022/04/30 13:49:04;;;;;;;;;;;;;;;18.24;44.38;98609.45;1745026;81;20268;-86